createdAt,value
2019-04-07T00:01:52.645Z,94306.67
2019-04-07T00:04:22.511Z,94304.39
2019-04-07T00:06:52.274Z,94294.63
2019-04-07T00:09:22.272Z,94294.09
2019-04-07T00:11:52.105Z,94307.69
2019-04-07T00:14:21.775Z,94302.12
2019-04-07T00:16:51.807Z,94307.66
2019-04-07T00:19:21.914Z,94301.14
2019-04-07T00:21:51.712Z,94310.16
2019-04-07T00:24:21.886Z,94313.44
2019-04-07T00:26:52.587Z,94316.16
2019-04-07T00:29:22.816Z,94314.80
2019-04-07T00:31:52.567Z,94319.08
2019-04-07T00:34:22.268Z,94306.94
2019-04-07T00:36:52.188Z,94321.80
2019-04-07T00:39:21.726Z,94318.92
2019-04-07T00:41:51.966Z,94326.30
2019-04-07T00:44:21.616Z,94314.43
2019-04-07T00:46:51.197Z,94313.14
2019-04-07T00:49:20.704Z,94316.45
2019-04-07T00:51:51.613Z,94324.63
2019-04-07T00:54:21.489Z,94323.06
2019-04-07T00:56:51.181Z,94322.73
2019-04-07T00:59:21.968Z,94308.64
2019-04-07T01:01:51.585Z,94324.97
2019-04-07T01:04:22.156Z,94302.24
2019-04-07T01:06:52.927Z,94302.45
2019-04-07T01:09:22.533Z,94306.81
2019-04-07T01:11:52.423Z,94315.20
2019-04-07T01:14:23.629Z,94305.08
2019-04-07T01:16:53.158Z,94299.16
2019-04-07T01:19:22.780Z,94302.72
2019-04-07T01:21:52.162Z,94292.13
2019-04-07T01:24:22.606Z,94299.05
2019-04-07T01:26:52.562Z,94292.29
2019-04-07T01:29:22.115Z,94293.13
2019-04-07T01:31:51.813Z,94285.48
2019-04-07T01:34:21.544Z,94293.00
2019-04-07T01:36:51.033Z,94293.20
2019-04-07T01:39:22.041Z,94291.22
2019-04-07T01:41:59.554Z,94280.53
2019-04-07T01:44:30.967Z,94285.17
2019-04-07T01:47:11.349Z,94284.19
2019-04-07T01:49:48.935Z,94289.92
2019-04-07T01:52:21.096Z,94287.59
2019-04-07T01:54:58.282Z,94273.77
2019-04-07T01:57:35.650Z,94285.26
2019-04-07T02:00:11.290Z,94279.43
2019-04-07T02:02:45.569Z,94287.27
2019-04-07T02:05:25.345Z,94284.30
2019-04-07T02:08:12.007Z,94279.31
2019-04-07T02:10:46.084Z,94292.24
2019-04-07T02:13:33.892Z,94290.59
2019-04-07T02:16:05.337Z,94283.80
2019-04-07T02:18:51.296Z,94284.95
2019-04-07T02:21:31.598Z,94284.96
2019-04-07T02:24:02.744Z,94288.23
2019-04-07T02:26:36.892Z,94286.73
2019-04-07T02:29:25.563Z,94291.13
2019-04-07T02:32:03.608Z,94286.16
2019-04-07T02:34:47.361Z,94291.55
2019-04-07T02:37:19.298Z,94294.28
2019-04-07T02:39:53.336Z,94287.14
2019-04-07T02:42:25.058Z,94292.87
2019-04-07T02:44:57.343Z,94296.72
2019-04-07T02:47:41.884Z,94293.39
2019-04-07T02:50:15.493Z,94290.89
2019-04-07T02:52:47.373Z,94294.44
2019-04-07T02:55:35.619Z,94289.44
2019-04-07T02:58:07.794Z,94284.56
2019-04-07T03:00:41.879Z,94291.59
2019-04-07T03:03:14.055Z,94280.64
2019-04-07T03:05:48.518Z,94287.32
2019-04-07T03:08:35.601Z,94272.44
2019-04-07T03:11:12.266Z,94289.50
2019-04-07T03:13:52.499Z,94292.32
2019-04-07T03:16:26.681Z,94298.53
2019-04-07T03:19:15.123Z,94285.98
2019-04-07T03:21:55.598Z,94272.93
2019-04-07T03:24:33.566Z,94276.25
2019-04-07T03:27:08.028Z,94281.77
2019-04-07T03:29:41.952Z,94279.34
2019-04-07T03:32:25.869Z,94285.03
2019-04-07T03:35:16.027Z,94294.50
2019-04-07T03:37:53.216Z,94285.06
2019-04-07T03:40:24.563Z,94294.41
2019-04-07T03:42:59.177Z,94279.48
2019-04-07T03:45:44.038Z,94288.27
2019-04-07T03:48:15.798Z,94280.45
2019-04-07T03:50:46.961Z,94288.70
2019-04-07T03:53:34.404Z,94276.67
2019-04-07T03:56:08.481Z,94288.59
2019-04-07T03:58:56.005Z,94282.03
2019-04-07T04:01:33.699Z,94279.95
2019-04-07T04:04:16.011Z,94278.95
2019-04-07T04:07:00.129Z,94283.42
2019-04-07T04:09:49.807Z,94279.02
2019-04-07T04:12:21.397Z,94283.87
2019-04-07T04:14:55.707Z,94279.28
2019-04-07T04:17:25.316Z,94280.55
2019-04-07T04:19:55.885Z,94279.83
2019-04-07T04:22:26.047Z,94283.73
2019-04-07T04:24:56.055Z,94286.25
2019-04-07T04:27:25.562Z,94280.21
2019-04-07T04:29:55.319Z,94283.13
2019-04-07T04:32:25.524Z,94279.30
2019-04-07T04:34:55.250Z,94281.89
2019-04-07T04:37:37.859Z,94278.84
2019-04-07T04:39:56.058Z,94286.12
2019-04-07T04:42:26.814Z,94282.39
2019-04-07T04:44:56.905Z,94284.87
2019-04-07T04:47:27.388Z,94283.52
2019-04-07T04:49:57.710Z,94283.79
2019-04-07T04:52:27.719Z,94278.06
2019-04-07T04:54:57.519Z,94287.02
2019-04-07T04:57:27.160Z,94286.60
2019-04-07T04:59:56.712Z,94289.38
2019-04-07T05:02:27.530Z,94272.11
2019-04-07T05:04:57.506Z,94276.53
2019-04-07T05:11:16.735Z,94293.82
2019-04-07T05:13:26.016Z,94290.56
2019-04-07T05:16:04.983Z,94280.55
2019-04-07T05:18:35.980Z,94279.55
2019-04-07T05:21:08.523Z,94299.34
2019-04-07T05:23:38.498Z,94291.88
2019-04-07T05:26:10.076Z,94286.55
2019-04-07T05:35:06.370Z,94276.05
2019-04-07T05:37:38.353Z,94278.43
2019-04-07T05:40:11.414Z,94276.50
2019-04-07T05:42:51.685Z,94284.77
2019-04-07T05:45:21.478Z,94278.58
2019-04-07T05:47:52.507Z,94283.23
2019-04-07T05:50:22.338Z,94287.59
2019-04-07T05:52:51.841Z,94289.17
2019-04-07T05:55:23.946Z,94286.20
2019-04-07T05:57:53.148Z,94289.76
2019-04-07T06:00:23.427Z,94285.76
2019-04-07T06:02:53.337Z,94295.77
2019-04-07T06:05:22.931Z,94280.77
2019-04-07T06:07:52.747Z,94289.36
2019-04-07T06:10:27.610Z,94283.93
2019-04-07T06:12:55.383Z,94288.36
2019-04-07T06:15:25.803Z,94283.06
2019-04-07T06:17:58.795Z,94290.08
2019-04-07T06:20:26.791Z,94283.34
2019-04-07T06:22:56.517Z,94282.84
2019-04-07T06:25:27.217Z,94286.63
2019-04-07T06:27:57.716Z,94281.03
2019-04-07T06:30:30.120Z,94285.47
2019-04-07T06:32:59.152Z,94286.45
2019-04-07T06:35:28.765Z,94288.36
2019-04-07T06:38:04.063Z,94293.31
2019-04-07T06:40:30.615Z,94281.26
2019-04-07T06:43:06.389Z,94286.97
2019-04-07T06:45:46.431Z,94287.73
2019-04-07T06:48:16.609Z,94287.10
2019-04-07T06:50:54.569Z,94293.95
2019-04-07T06:53:35.673Z,94285.41
2019-04-07T06:56:12.950Z,94286.78
2019-04-07T06:58:53.259Z,94292.55
2019-04-07T07:01:30.715Z,94292.44
2019-04-07T07:04:10.885Z,94287.78
2019-04-07T07:06:56.870Z,94283.00
2019-04-07T07:09:28.845Z,94281.38
2019-04-07T07:12:22.701Z,94278.47
2019-04-07T07:14:52.774Z,94279.41
2019-04-07T07:17:33.191Z,94272.62
2019-04-07T07:20:07.293Z,94278.75
2019-04-07T07:22:40.267Z,94281.34
2019-04-07T07:25:12.401Z,94276.19
2019-04-07T07:27:43.102Z,94279.45
2019-04-07T07:30:15.166Z,94277.16
2019-04-07T07:32:44.283Z,94282.02
2019-04-07T07:35:15.317Z,94274.91
2019-04-07T07:37:45.529Z,94280.52
2019-04-07T07:40:17.945Z,94285.95
2019-04-07T07:42:49.035Z,94268.41
2019-04-07T07:45:18.666Z,94267.47
2019-04-07T07:47:51.333Z,94260.45
2019-04-07T07:50:20.141Z,94260.53
2019-04-07T07:52:53.407Z,94265.52
2019-04-07T07:55:21.946Z,94264.41
2019-04-07T07:57:56.776Z,94272.70
2019-04-07T08:00:23.607Z,94269.33
2019-04-07T08:02:53.817Z,94274.02
2019-04-07T08:05:24.832Z,94269.55
2019-04-07T08:07:55.172Z,94265.98
2019-04-07T08:10:25.413Z,94273.71
2019-04-07T08:12:56.328Z,94259.59
2019-04-07T08:15:30.995Z,94261.48
2019-04-07T08:17:57.383Z,94267.69
2019-04-07T08:20:30.589Z,94271.09
2019-04-07T08:23:00.667Z,94253.07
2019-04-07T08:25:30.362Z,94254.84
2019-04-07T08:28:02.189Z,94249.10
2019-04-07T08:30:31.797Z,94256.59
2019-04-07T08:33:02.402Z,94252.20
2019-04-07T08:35:37.783Z,94247.68
2019-04-07T08:38:05.982Z,94240.94
2019-04-07T08:40:38.141Z,94240.03
2019-04-07T08:43:08.287Z,94237.22
2019-04-07T08:45:38.189Z,94237.23
2019-04-07T08:48:08.969Z,94218.70
2019-04-07T08:50:38.664Z,94226.71
2019-04-07T08:53:14.099Z,94217.70
2019-04-07T08:55:47.772Z,94216.87
2019-04-07T08:58:24.893Z,94219.37
2019-04-07T09:00:51.601Z,94219.92
2019-04-07T09:03:20.826Z,94215.06
2019-04-07T09:05:51.392Z,94208.27
2019-04-07T09:08:21.034Z,94196.38
2019-04-07T09:11:04.639Z,94190.20
2019-04-07T09:13:34.594Z,94193.80
2019-04-07T09:16:06.091Z,94194.72
2019-04-07T09:19:02.538Z,94202.33
2019-04-07T09:21:47.546Z,94187.58
2019-04-07T09:24:32.770Z,94169.17
2019-04-07T09:27:23.398Z,94180.45
2019-04-07T09:30:01.434Z,94178.77
2019-04-07T09:32:43.840Z,94180.13
2019-04-07T09:35:33.382Z,94176.27
2019-04-07T09:38:11.014Z,94172.03
2019-04-07T09:40:58.557Z,94170.02
2019-04-07T09:43:30.622Z,94167.90
2019-04-07T09:46:05.041Z,94172.21
2019-04-07T09:48:52.743Z,94158.77
2019-04-07T09:51:24.373Z,94152.52
2019-04-07T09:54:01.717Z,94158.50
2019-04-07T09:56:33.691Z,94142.14
2019-04-07T09:59:07.929Z,94146.25
2019-04-07T10:01:54.183Z,94140.82
2019-04-07T10:04:42.277Z,94139.59
2019-04-07T10:07:30.494Z,94135.17
2019-04-07T10:10:13.943Z,94133.41
2019-04-07T10:12:58.361Z,94131.84
2019-04-07T10:15:32.855Z,94109.80
2019-04-07T10:18:07.543Z,94114.75
2019-04-07T10:20:46.706Z,94114.73
2019-04-07T10:23:24.226Z,94115.52
2019-04-07T10:25:56.120Z,94098.16
2019-04-07T10:28:41.810Z,94108.30
2019-04-07T10:31:18.421Z,94101.80
2019-04-07T10:34:04.001Z,94085.30
2019-04-07T10:36:44.971Z,94072.98
2019-04-07T10:39:19.874Z,94071.11
2019-04-07T10:41:56.924Z,94069.49
2019-04-07T10:44:34.179Z,94059.61
2019-04-07T10:47:21.653Z,94053.94
2019-04-07T10:50:07.497Z,94056.55
2019-04-07T10:52:54.516Z,94055.98
2019-04-07T10:55:28.926Z,94057.23
2019-04-07T10:58:09.139Z,94059.17
2019-04-07T11:00:53.831Z,94060.30
2019-04-07T11:03:35.101Z,94062.20
2019-04-07T11:06:07.309Z,94071.04
2019-04-07T11:08:55.534Z,94066.56
2019-04-07T11:11:32.549Z,94054.50
2019-04-07T11:14:06.890Z,94049.09
2019-04-07T11:16:54.928Z,94032.39
2019-04-07T11:19:29.270Z,94046.36
2019-04-07T11:22:03.127Z,94033.95
2019-04-07T11:24:49.630Z,94038.42
2019-04-07T11:27:21.134Z,94030.34
2019-04-07T11:30:01.574Z,94028.48
2019-04-07T11:32:32.872Z,94022.77
2019-04-07T11:35:21.123Z,94028.44
2019-04-07T11:37:55.395Z,94029.32
2019-04-07T11:40:49.602Z,94029.83
2019-04-07T11:43:17.712Z,94037.61
2019-04-07T11:45:58.429Z,94025.91
2019-04-07T11:48:28.005Z,94032.20
2019-04-07T11:51:03.314Z,94027.25
2019-04-07T11:53:41.489Z,94021.55
2019-04-07T11:56:29.647Z,94008.78
2019-04-07T11:59:08.833Z,94018.40
2019-04-07T12:01:43.667Z,94007.45
2019-04-07T12:04:28.345Z,94017.42
2019-04-07T12:07:19.098Z,94011.19
2019-04-07T12:10:09.720Z,94010.36
2019-04-07T12:12:44.108Z,94007.25
2019-04-07T12:15:22.715Z,93989.80
2019-04-07T12:17:55.984Z,93997.88
2019-04-07T12:20:45.175Z,93999.45
2019-04-07T12:23:27.464Z,93997.16
2019-04-07T12:26:02.144Z,93994.28
2019-04-07T12:28:35.571Z,93992.47
2019-04-07T12:31:13.860Z,93992.48
2019-04-07T12:34:14.362Z,93998.72
2019-04-07T12:36:56.234Z,93995.59
2019-04-07T12:39:33.691Z,93989.09
2019-04-07T12:42:10.201Z,93991.67
2019-04-07T12:44:44.120Z,93987.52
2019-04-07T12:47:41.048Z,93981.55
2019-04-07T12:50:28.717Z,93989.34
2019-04-07T12:53:16.930Z,93988.58
2019-04-07T12:56:03.547Z,93983.64
2019-04-07T12:58:35.579Z,93980.73
2019-04-07T13:01:19.298Z,93987.76
2019-04-07T13:04:04.670Z,93977.09
2019-04-07T13:06:45.208Z,93978.94
2019-04-07T13:09:32.041Z,93975.03
2019-04-07T13:12:10.033Z,93974.52
2019-04-07T13:14:56.568Z,93967.21
2019-04-07T13:17:34.560Z,93973.98
2019-04-07T13:20:18.994Z,93972.19
2019-04-07T13:23:06.030Z,93969.58
2019-04-07T13:25:43.436Z,93974.00
2019-04-07T13:28:30.604Z,93964.87
2019-04-07T13:31:04.950Z,93963.28
2019-04-07T13:33:42.417Z,93960.41
2019-04-07T13:36:20.345Z,93974.27
2019-04-07T13:39:00.915Z,93972.42
2019-04-07T13:41:44.948Z,93977.64
2019-04-07T13:44:16.185Z,93941.46
2019-04-07T13:47:06.383Z,93960.20
2019-04-07T13:49:55.277Z,93961.50
2019-04-07T13:52:41.945Z,93958.10
2019-04-07T13:55:30.575Z,93958.63
2019-04-07T14:07:16.929Z,93919.64
2019-04-07T14:10:04.394Z,93955.77
2019-04-07T14:12:55.633Z,93944.33
2019-04-07T14:15:27.086Z,93944.06
2019-04-07T14:18:01.210Z,93955.23
2019-04-07T14:20:40.478Z,93950.05
2019-04-07T14:23:12.244Z,93954.23
2019-04-07T14:25:48.262Z,93943.81
2019-04-07T14:28:20.113Z,93952.66
2019-04-07T14:30:52.145Z,93948.23
2019-04-07T14:33:39.242Z,93948.25
2019-04-07T14:36:17.221Z,93946.95
2019-04-07T14:38:48.567Z,93949.04
2019-04-07T14:41:35.707Z,93950.86
2019-04-07T14:44:10.128Z,93941.99
2019-04-07T14:46:47.663Z,93946.42
2019-04-07T14:49:34.161Z,93951.64
2019-04-07T14:52:11.257Z,93947.20
2019-04-07T14:54:56.173Z,93949.30
2019-04-07T14:57:31.376Z,93951.63
2019-04-07T15:00:15.270Z,93952.67
2019-04-07T15:05:56.326Z,93960.73
2019-04-07T15:08:36.994Z,93967.73
2019-04-07T15:11:23.759Z,93963.56
2019-04-07T15:13:56.916Z,93961.97
2019-04-07T15:16:26.311Z,93956.20
2019-04-07T15:19:06.560Z,93975.19
2019-04-07T15:21:37.757Z,93971.98
2019-04-07T15:24:11.609Z,93966.52
2019-04-07T15:26:41.425Z,93969.34
2019-04-07T15:29:11.175Z,93977.16
2019-04-07T15:31:41.883Z,93975.58
2019-04-07T15:34:14.137Z,93974.02
2019-04-07T15:36:43.987Z,93967.50
2019-04-07T15:39:13.826Z,93972.71
2019-04-07T15:41:44.482Z,93978.40
2019-04-07T15:44:18.148Z,93975.05
2019-04-07T15:46:52.378Z,93969.58
2019-04-07T15:49:23.501Z,93975.48
2019-04-07T15:51:52.630Z,93971.36
2019-04-07T15:54:24.208Z,93978.09
2019-04-07T15:56:54.028Z,93980.85
2019-04-07T15:59:24.773Z,93975.39
2019-04-07T16:01:56.191Z,93991.99
2019-04-07T16:04:28.400Z,93982.88
2019-04-07T16:06:57.753Z,93985.14
2019-04-07T16:09:36.056Z,93976.81
2019-04-07T16:12:00.290Z,93971.14
2019-04-07T16:14:30.960Z,93979.41
2019-04-07T16:17:04.139Z,93984.59
2019-04-07T16:19:39.688Z,93985.52
2019-04-07T16:22:05.018Z,93985.80
2019-04-07T16:24:34.819Z,93989.55
2019-04-07T16:27:06.715Z,93992.89
2019-04-07T16:29:36.478Z,93990.61
2019-04-07T16:32:06.430Z,93986.13
2019-04-07T16:34:42.786Z,93985.94
2019-04-07T16:37:15.730Z,93988.48
2019-04-07T16:39:53.148Z,93988.10
2019-04-07T16:42:22.941Z,94001.48
2019-04-07T16:44:53.756Z,93992.17
2019-04-07T16:47:35.841Z,93997.73
2019-04-07T16:50:51.116Z,94004.53
2019-04-07T16:53:52.086Z,94004.30
2019-04-07T16:59:36.647Z,94016.80
2019-04-07T17:02:06.736Z,94000.70
2019-04-07T17:04:39.190Z,94013.69
2019-04-07T17:07:15.289Z,94009.94
2019-04-07T17:09:48.862Z,94010.73
2019-04-07T17:12:20.406Z,94024.02
2019-04-07T17:14:54.311Z,94022.32
2019-04-07T17:17:25.038Z,94018.50
2019-04-07T17:19:57.349Z,94016.04
2019-04-07T17:22:27.225Z,94018.78
2019-04-07T17:25:00.337Z,94023.81
2019-04-07T17:27:32.777Z,94023.75
2019-04-07T17:30:05.374Z,94026.63
2019-04-07T17:32:39.149Z,94024.74
2019-04-07T17:35:17.816Z,94030.16
2019-04-07T17:37:48.220Z,94029.98
2019-04-07T17:40:19.596Z,94031.52
2019-04-07T17:42:52.771Z,94032.59
2019-04-07T17:45:23.567Z,94035.38
2019-04-07T17:48:05.568Z,94042.75
2019-04-07T17:50:34.256Z,94048.20
2019-04-07T17:53:15.944Z,94047.33
2019-04-07T17:56:00.159Z,94051.41
2019-04-07T17:58:47.810Z,94064.22
2019-04-07T18:01:21.677Z,94067.19
2019-04-07T18:04:01.356Z,94068.20
2019-04-07T18:06:49.474Z,94048.72
2019-04-07T18:09:29.835Z,94075.14
2019-04-07T18:12:12.807Z,94068.91
2019-04-07T18:14:43.740Z,94074.72
2019-04-07T18:17:21.530Z,94068.28
2019-04-07T18:19:59.248Z,94067.17
2019-04-07T18:22:47.715Z,94073.94
2019-04-07T18:25:33.083Z,94072.16
2019-04-07T18:28:04.085Z,94077.11
2019-04-07T18:30:45.183Z,94075.75
2019-04-07T18:33:33.559Z,94078.91
2019-04-07T18:36:11.990Z,94083.63
2019-04-07T18:39:01.148Z,94080.47
2019-04-07T18:41:43.602Z,94085.30
2019-04-07T18:44:27.258Z,94080.99
2019-04-07T18:47:01.482Z,94082.62
2019-04-07T18:49:36.542Z,94077.39
2019-04-07T18:52:20.025Z,94080.28
2019-04-07T18:55:08.983Z,94076.89
2019-04-07T18:57:41.660Z,94082.87
2019-04-07T19:00:13.699Z,94077.01
2019-04-07T19:02:46.179Z,94071.42
2019-04-07T19:05:25.140Z,94080.13
2019-04-07T19:08:12.827Z,94081.03
2019-04-07T19:11:10.391Z,94078.98
2019-04-07T19:14:01.281Z,94077.54
2019-04-07T19:16:27.957Z,94085.92
2019-04-07T19:19:08.350Z,94082.30
2019-04-07T19:21:43.452Z,94085.42
2019-04-07T19:24:19.266Z,94084.97
2019-04-07T19:27:11.990Z,94090.14
2019-04-07T19:29:46.060Z,94087.64
2019-04-07T19:32:34.132Z,94076.09
2019-04-07T19:35:23.187Z,94078.95
2019-04-07T19:38:07.570Z,94092.14
2019-04-07T19:40:47.832Z,94089.36
2019-04-07T19:43:25.110Z,94074.72
2019-04-07T19:46:00.537Z,94081.58
2019-04-07T19:48:50.412Z,94082.36
2019-04-07T19:51:22.597Z,94083.94
2019-04-07T19:53:54.286Z,94073.66
2019-04-07T19:56:37.544Z,94077.05
2019-04-07T19:59:14.611Z,94068.66
2019-04-07T20:01:48.840Z,94076.74
2019-04-07T20:04:22.936Z,94071.86
2019-04-07T20:06:57.899Z,94057.50
2019-04-07T20:09:44.104Z,94076.60
2019-04-07T20:12:14.994Z,94076.88
2019-04-07T20:15:08.871Z,94077.89
2019-04-07T20:17:35.196Z,94078.03
2019-04-07T20:20:09.999Z,94078.98
2019-04-07T20:22:44.070Z,94071.82
2019-04-07T20:25:27.242Z,94069.69
2019-04-07T20:27:59.428Z,94070.90
2019-04-07T20:30:49.542Z,94067.02
2019-04-07T20:33:29.928Z,94070.70
2019-04-07T20:36:04.925Z,94073.16
2019-04-07T20:38:36.066Z,94075.52
2019-04-07T20:41:23.959Z,94063.70
2019-04-07T20:43:59.054Z,94059.41
2019-04-07T20:46:30.493Z,94067.61
2019-04-07T20:49:13.689Z,94066.06
2019-04-07T20:52:03.003Z,94067.19
2019-04-07T20:54:47.617Z,94077.95
2019-04-07T20:57:37.251Z,94073.27
2019-04-07T21:00:09.182Z,94069.48
2019-04-07T21:03:06.482Z,94066.11
2019-04-07T21:05:29.406Z,94070.49
2019-04-07T21:08:17.835Z,94062.21
2019-04-07T21:10:58.096Z,94062.73
2019-04-07T21:13:39.590Z,94072.34
2019-04-07T21:16:29.553Z,94068.12
2019-04-07T21:19:12.389Z,94069.58
2019-04-07T21:21:45.474Z,94069.95
2019-04-07T21:24:20.027Z,94077.95
2019-04-07T21:26:51.974Z,94076.85
2019-04-07T21:29:35.152Z,94069.20
2019-04-07T21:32:08.871Z,94068.84
2019-04-07T21:34:45.028Z,94065.83
2019-04-07T21:37:28.469Z,94064.13
2019-04-07T21:40:07.557Z,94057.20
2019-04-07T21:42:38.658Z,94066.39
2019-04-07T21:45:13.413Z,94055.44
2019-04-07T21:47:48.200Z,94060.88
2019-04-07T21:50:22.319Z,94066.06
2019-04-07T21:52:55.312Z,94061.88
2019-04-07T21:55:28.848Z,94061.67
2019-04-07T21:58:00.868Z,94059.83
2019-04-07T22:00:48.922Z,94062.56
2019-04-07T22:03:24.103Z,94056.25
2019-04-07T22:05:59.441Z,94052.14
2019-04-07T22:08:30.762Z,94055.91
2019-04-07T22:11:00.344Z,94056.02
2019-04-07T22:13:32.857Z,94051.75
2019-04-07T22:16:03.879Z,94054.63
2019-04-07T22:18:32.493Z,94056.99
2019-04-07T22:21:02.240Z,94052.19
2019-04-07T22:23:32.599Z,94047.91
2019-04-07T22:26:02.556Z,94038.55
2019-04-07T22:28:33.209Z,94034.69
2019-04-07T22:31:04.484Z,94038.30
2019-04-07T22:33:34.968Z,94044.72
2019-04-07T22:36:04.627Z,94042.76
2019-04-07T22:38:34.217Z,94048.39
2019-04-07T22:41:06.773Z,94046.21
2019-04-07T22:43:35.490Z,94044.70
2019-04-07T22:46:12.691Z,94040.84
2019-04-07T22:48:36.492Z,94037.31
2019-04-07T22:51:09.983Z,94039.16
2019-04-07T22:53:37.427Z,94043.24
2019-04-07T22:56:07.925Z,94036.80
2019-04-07T22:58:38.303Z,94034.75
2019-04-07T23:01:08.978Z,94045.56
2019-04-07T23:03:39.111Z,94034.57
2019-04-07T23:06:09.406Z,94042.02
2019-04-07T23:08:39.073Z,94033.50
2019-04-07T23:11:08.495Z,94040.41
2019-04-07T23:13:37.941Z,94034.56
2019-04-07T23:16:13.497Z,94033.85
2019-04-07T23:18:38.723Z,94035.53
2019-04-07T23:21:08.285Z,94036.54
2019-04-07T23:23:37.846Z,94026.30
2019-04-07T23:26:07.565Z,94019.09
2019-04-07T23:28:37.094Z,94023.18
2019-04-07T23:31:07.520Z,94021.50
2019-04-07T23:33:38.696Z,94016.84
2019-04-07T23:36:08.237Z,94019.09
2019-04-07T23:38:37.867Z,94025.83
2019-04-07T23:41:07.373Z,94012.33
2019-04-07T23:43:37.631Z,94017.37
2019-04-07T23:46:19.432Z,94000.61
2019-04-07T23:48:40.245Z,94011.80
2019-04-07T23:51:10.231Z,94004.53
2019-04-07T23:54:11.303Z,94010.81
2019-04-07T23:56:43.488Z,94003.73
2019-04-07T23:59:14.661Z,94007.05
